OMFJ/FJR METAR and TAF weather

Enter ICAO airport designator
Station Type Date Time Source
OMFJ METAR 2022/05/26 03:00 UTC NOAA

OMFJ 260300Z 32018KT 280V360 6000 NSC 33/15 Q1003 A2963


Station Type Date Time Source
OMFJ Decoded METAR 2022/05/26 03:00 UTC NOAA

Fujairah, United Arab Emirates (OMFJ) 25-06N 056-20E 28M
May 25, 2022 - 11:00 PM EDT / 2022.05.26 0300 UTC
Wind: from the NW (320 degrees) at 21 MPH (18 KT) (direction variable):0
Visibility: 3 mile(s):0
Temperature: 91 F (33 C)
Dew Point: 59 F (15 C)
Relative Humidity: 33%
Pressure (altimeter): 29.63 in. Hg (1003 hPa)
ob: OMFJ 260300Z 32018KT 280V360 6000 NSC 33/15 Q1003 A2963
cycle: 3

Station Type Date Time Source
OMFJ TAF 2022/05/25 18:02 UTC NOAA

TAF OMFJ 251700Z 2518/2700 29016KT 6000 NSC PROB30
TEMPO 2520/2603 30020G30KT 3000 BLDU PROB40
TEMPO 2612/2622 30022G35KT 3000 BLDU

Example: see airport list